createdAt,value
2023-11-11T00:01:11.969Z,99124.09
2023-11-11T00:03:39.984Z,99123.75
2023-11-11T00:06:08.930Z,99122.66
2023-11-11T00:08:36.649Z,99123.03
2023-11-11T00:11:06.221Z,99115.41
2023-11-11T00:13:35.093Z,99116.59
2023-11-11T00:16:04.770Z,99119.88
2023-11-11T00:18:34.034Z,99111.75
2023-11-11T00:21:02.016Z,99109.53
2023-11-11T00:23:29.781Z,99111.41
2023-11-11T00:25:57.587Z,99113.88
2023-11-11T00:28:25.397Z,99114.69
2023-11-11T00:30:53.441Z,99105.78
2023-11-11T00:33:22.687Z,99099.56
2023-11-11T00:35:50.402Z,99103.09
2023-11-11T00:38:18.119Z,99097.44
2023-11-11T00:40:45.861Z,99100.97
2023-11-11T00:43:14.330Z,99100.63
2023-11-11T00:45:42.127Z,99103.91
2023-11-11T00:48:10.034Z,99105.53
2023-11-11T00:50:39.272Z,99100.16
2023-11-11T00:53:07.514Z,99106.25
2023-11-11T00:55:36.191Z,99103.56
2023-11-11T00:58:05.000Z,99111.88
2023-11-11T01:00:32.957Z,99106.69
2023-11-11T01:03:00.707Z,99107.16
2023-11-11T01:05:28.548Z,99100.94
2023-11-11T01:07:57.769Z,99106.13
2023-11-11T01:10:26.189Z,99107.75
2023-11-11T01:12:55.114Z,99100.09
2023-11-11T01:15:23.020Z,99098.09
2023-11-11T01:17:50.938Z,99100.91
2023-11-11T01:20:18.797Z,99103.81
2023-11-11T01:22:46.721Z,99099.69
2023-11-11T01:25:15.936Z,99105.94
2023-11-11T01:27:43.770Z,99102.28
2023-11-11T01:30:13.782Z,99101.81
2023-11-11T01:32:41.833Z,99099.34
2023-11-11T01:35:10.198Z,99096.16
2023-11-11T01:37:37.917Z,99095.13
2023-11-11T01:40:08.102Z,99090.31
2023-11-11T01:42:37.365Z,99088.69
2023-11-11T01:45:06.085Z,99084.75
2023-11-11T01:47:34.502Z,99088.31
2023-11-11T01:50:02.636Z,99087.34
2023-11-11T01:52:31.043Z,99084.84
2023-11-11T01:54:59.301Z,99088.81
2023-11-11T01:57:28.327Z,99091.75
2023-11-11T01:59:59.467Z,99095.53
2023-11-11T02:02:27.519Z,99087.19
2023-11-11T02:04:55.546Z,99088.03
2023-11-11T02:07:23.461Z,99085.94
2023-11-11T02:09:51.412Z,99085.47
2023-11-11T02:12:21.768Z,99086.06
2023-11-11T02:14:49.982Z,99083.94
2023-11-11T02:17:19.866Z,99081.00
2023-11-11T02:19:47.812Z,99083.47
2023-11-11T02:22:17.975Z,99079.72
2023-11-11T02:24:50.161Z,99083.84
2023-11-11T02:27:18.228Z,99076.00
2023-11-11T02:29:46.594Z,99082.66
2023-11-11T02:32:14.644Z,99079.50
2023-11-11T02:34:42.692Z,99078.69
2023-11-11T02:37:10.683Z,99083.84
2023-11-11T02:39:38.500Z,99085.50
2023-11-11T02:42:08.258Z,99088.22
2023-11-11T02:44:36.136Z,99086.31
2023-11-11T02:47:04.009Z,99090.69
2023-11-11T02:49:32.043Z,99089.03
2023-11-11T02:51:59.786Z,99089.50
2023-11-11T02:54:28.243Z,99086.56
2023-11-11T02:56:55.976Z,99088.44
2023-11-11T02:59:25.231Z,99086.78
2023-11-11T03:01:53.246Z,99086.97
2023-11-11T03:04:22.597Z,99088.63
2023-11-11T03:06:50.661Z,99088.16
2023-11-11T03:09:19.509Z,99076.88
2023-11-11T03:11:47.600Z,99081.84
2023-11-11T03:14:16.850Z,99086.41
2023-11-11T03:16:46.125Z,99087.25
2023-11-11T03:19:14.011Z,99081.47
2023-11-11T03:21:41.971Z,99085.84
2023-11-11T03:24:10.528Z,99088.53
2023-11-11T03:26:38.319Z,99085.59
2023-11-11T03:29:06.171Z,99085.59
2023-11-11T03:31:34.200Z,99082.66
2023-11-11T03:34:03.365Z,99081.84
2023-11-11T03:36:31.425Z,99080.88
2023-11-11T03:38:59.165Z,99084.03
2023-11-11T03:41:26.824Z,99080.53
2023-11-11T03:43:55.126Z,99080.28
2023-11-11T03:46:22.909Z,99072.56
2023-11-11T03:48:50.895Z,99086.06
2023-11-11T03:51:20.218Z,99081.47
2023-11-11T03:53:48.017Z,99088.06
2023-11-11T03:56:15.849Z,99088.06
2023-11-11T03:58:43.558Z,99096.88
2023-11-11T04:01:11.906Z,99099.19
2023-11-11T04:03:41.373Z,99101.06
2023-11-11T04:06:10.952Z,99101.66
2023-11-11T04:08:41.326Z,99105.16
2023-11-11T04:11:09.694Z,99105.88
2023-11-11T04:13:39.849Z,99119.38
2023-11-11T04:16:09.547Z,99107.72
2023-11-11T04:18:37.795Z,99114.19
2023-11-11T04:21:06.629Z,99119.38
2023-11-11T04:23:35.343Z,99118.03
2023-11-11T04:26:05.016Z,99125.84
2023-11-11T04:28:32.839Z,99120.13
2023-11-11T04:31:00.834Z,99131.84
2023-11-11T04:33:29.783Z,99132.88
2023-11-11T04:35:57.968Z,99142.09
2023-11-11T04:38:28.267Z,99143.22
2023-11-11T04:40:58.217Z,99146.44
2023-11-11T04:43:28.472Z,99150.81
2023-11-11T04:45:56.289Z,99149.94
2023-11-11T04:48:24.133Z,99159.53
2023-11-11T04:50:52.606Z,99160.78
2023-11-11T04:53:20.739Z,99169.28
2023-11-11T04:55:49.610Z,99173.00
2023-11-11T04:58:18.453Z,99176.91
2023-11-11T05:00:48.329Z,99180.66
2023-11-11T05:03:18.859Z,99181.72
2023-11-11T05:05:46.824Z,99181.72
2023-11-11T05:08:14.785Z,99187.53
2023-11-11T05:10:42.817Z,99188.38
2023-11-11T05:13:10.589Z,99192.28
2023-11-11T05:15:43.809Z,99197.94
2023-11-11T05:18:13.804Z,99197.75
2023-11-11T05:20:41.614Z,99194.38
2023-11-11T05:23:11.247Z,99193.31
2023-11-11T05:25:39.520Z,99198.50
2023-11-11T05:28:08.569Z,99188.81
2023-11-11T05:30:36.695Z,99195.06
2023-11-11T05:33:06.389Z,99198.25
2023-11-11T05:35:35.782Z,99197.44
2023-11-11T05:38:03.735Z,99204.09
2023-11-11T05:40:31.687Z,99207.19
2023-11-11T05:43:01.440Z,99213.22
2023-11-11T05:45:29.855Z,99211.94
2023-11-11T05:47:57.913Z,99221.03
2023-11-11T05:50:25.641Z,99211.91
2023-11-11T05:52:54.692Z,99221.88
2023-11-11T05:55:22.803Z,99223.13
2023-11-11T05:57:51.507Z,99226.81
2023-11-11T06:00:19.740Z,99233.22
2023-11-11T06:02:47.468Z,99230.09
2023-11-11T06:05:15.699Z,99240.44
2023-11-11T06:07:43.535Z,99244.19
2023-11-11T06:10:13.732Z,99247.31
2023-11-11T06:12:41.773Z,99246.09
2023-11-11T06:15:10.569Z,99255.41
2023-11-11T06:17:38.591Z,99253.13
2023-11-11T06:20:07.737Z,99255.38
2023-11-11T06:22:35.581Z,99259.53
2023-11-11T06:25:03.390Z,99252.88
2023-11-11T06:27:32.599Z,99262.84
2023-11-11T06:30:00.951Z,99263.06
2023-11-11T06:32:28.922Z,99262.47
2023-11-11T06:34:57.160Z,99269.13
2023-11-11T06:37:26.559Z,99269.13
2023-11-11T06:39:54.531Z,99272.63
2023-11-11T06:42:22.384Z,99288.38
2023-11-11T06:44:51.788Z,99286.53
2023-11-11T06:47:19.969Z,99298.56
2023-11-11T06:49:48.023Z,99296.09
2023-11-11T06:52:16.002Z,99300.63
2023-11-11T06:54:45.016Z,99304.78
2023-11-11T06:57:13.219Z,99299.16
2023-11-11T06:59:40.964Z,99308.09
2023-11-11T07:02:13.836Z,99314.31
2023-11-11T07:04:41.993Z,99317.66
2023-11-11T07:07:13.222Z,99317.00
2023-11-11T07:09:42.772Z,99322.00
2023-11-11T07:12:14.180Z,99321.41
2023-11-11T07:14:41.998Z,99331.16
2023-11-11T07:17:11.368Z,99334.22
2023-11-11T07:19:39.159Z,99337.53
2023-11-11T07:24:38.606Z,99337.53
2023-11-11T07:27:07.105Z,99349.75
2023-11-11T07:29:34.925Z,99346.25
2023-11-11T07:32:02.791Z,99348.50
2023-11-11T07:34:32.692Z,99350.97
2023-11-11T07:37:00.910Z,99354.13
2023-11-11T07:39:28.730Z,99362.44
2023-11-11T07:41:56.660Z,99363.88
2023-11-11T07:44:25.718Z,99361.19
2023-11-11T07:46:53.592Z,99368.88
2023-11-11T07:49:21.558Z,99369.91
2023-11-11T07:51:51.211Z,99375.31
2023-11-11T07:54:18.958Z,99372.66
2023-11-11T07:56:47.025Z,99385.69
2023-11-11T07:59:14.911Z,99385.31
2023-11-11T08:01:43.100Z,99388.16
2023-11-11T08:04:11.974Z,99395.03
2023-11-11T08:06:39.877Z,99392.34
2023-11-11T08:09:11.052Z,99391.94
2023-11-11T08:11:39.631Z,99403.97
2023-11-11T08:14:07.543Z,99400.22
2023-11-11T08:16:35.653Z,99400.63
2023-11-11T08:19:05.422Z,99400.63
2023-11-11T08:21:34.219Z,99412.28
2023-11-11T08:24:02.088Z,99407.25
2023-11-11T08:26:31.384Z,99420.53
2023-11-11T08:28:59.934Z,99414.53
2023-11-11T08:31:28.043Z,99419.09
2023-11-11T08:33:56.147Z,99419.31
2023-11-11T08:36:25.526Z,99422.00
2023-11-11T08:38:53.848Z,99419.50
2023-11-11T08:41:21.673Z,99424.25
2023-11-11T08:43:51.253Z,99424.63
2023-11-11T08:46:19.220Z,99424.63
2023-11-11T08:48:47.353Z,99428.81
2023-11-11T08:51:15.376Z,99431.28
2023-11-11T08:53:43.302Z,99439.16
2023-11-11T08:56:11.116Z,99443.69
2023-11-11T08:58:38.933Z,99434.97
2023-11-11T09:01:08.176Z,99437.25
2023-11-11T09:03:36.960Z,99447.03
2023-11-11T09:06:06.631Z,99447.59
2023-11-11T09:08:34.382Z,99452.78
2023-11-11T09:11:02.295Z,99446.75
2023-11-11T09:13:30.362Z,99460.69
2023-11-11T09:15:58.323Z,99467.28
2023-11-11T09:18:27.670Z,99465.97
2023-11-11T09:20:56.678Z,99470.06
2023-11-11T09:23:24.473Z,99472.19
2023-11-11T09:25:52.211Z,99471.81
2023-11-11T09:28:20.383Z,99477.25
2023-11-11T09:30:48.399Z,99471.66
2023-11-11T09:33:17.836Z,99472.06
2023-11-11T09:35:47.637Z,99472.66
2023-11-11T09:38:15.721Z,99470.97
2023-11-11T09:40:43.674Z,99467.22
2023-11-11T09:43:12.331Z,99477.03
2023-11-11T09:45:40.322Z,99485.13
2023-11-11T09:48:08.973Z,99477.63
2023-11-11T09:50:37.997Z,99482.22
2023-11-11T09:53:07.983Z,99482.44
2023-11-11T09:55:37.869Z,99482.84
2023-11-11T09:58:06.987Z,99482.22
2023-11-11T10:00:35.034Z,99492.56
2023-11-11T10:03:03.172Z,99496.69
2023-11-11T10:05:31.804Z,99495.34
2023-11-11T10:07:59.629Z,99476.81
2023-11-11T10:10:28.832Z,99487.78
2023-11-11T10:12:58.203Z,99490.84
2023-11-11T10:15:25.992Z,99494.19
2023-11-11T10:17:53.947Z,99493.31
2023-11-11T10:20:21.832Z,99499.50
2023-11-11T10:22:51.054Z,99494.09
2023-11-11T10:25:21.041Z,99497.66
2023-11-11T10:27:51.646Z,99491.78
2023-11-11T10:30:21.809Z,99484.09
2023-11-11T10:32:53.240Z,99492.16
2023-11-11T10:35:22.135Z,99494.91
2023-11-11T10:37:52.095Z,99497.38
2023-11-11T10:40:21.230Z,99490.84
2023-11-11T10:42:51.524Z,99488.09
2023-11-11T10:45:19.295Z,99499.91
2023-11-11T10:47:48.171Z,99499.00
2023-11-11T10:50:16.982Z,99504.44
2023-11-11T10:52:45.479Z,99506.06
2023-11-11T10:55:13.917Z,99502.78
2023-11-11T10:57:43.635Z,99513.13
2023-11-11T11:00:21.880Z,99510.88
2023-11-11T11:02:54.013Z,99512.81
2023-11-11T11:05:29.727Z,99511.81
2023-11-11T11:08:12.184Z,99516.22
2023-11-11T11:10:51.743Z,99515.38
2023-11-11T11:13:20.223Z,99517.03
2023-11-11T11:15:49.809Z,99515.13
2023-11-11T11:18:24.691Z,99509.47
2023-11-11T11:20:54.955Z,99512.78
2023-11-11T11:23:23.646Z,99515.59
2023-11-11T11:25:53.101Z,99506.19
2023-11-11T11:28:23.779Z,99519.75
2023-11-11T11:30:56.019Z,99513.09
2023-11-11T11:33:27.425Z,99514.56
2023-11-11T11:35:57.649Z,99520.47
2023-11-11T11:38:29.404Z,99512.44
2023-11-11T11:41:02.983Z,99520.78
2023-11-11T11:43:31.976Z,99522.00
2023-11-11T11:46:01.512Z,99523.66
2023-11-11T11:48:31.900Z,99516.19
2023-11-11T11:51:08.366Z,99521.00
2023-11-11T11:53:36.805Z,99521.63
2023-11-11T11:56:05.413Z,99529.03
2023-11-11T11:58:46.321Z,99526.56
2023-11-11T12:01:24.157Z,99521.84
2023-11-11T12:03:52.577Z,99527.38
2023-11-11T12:06:21.036Z,99532.41
2023-11-11T12:08:50.252Z,99537.16
2023-11-11T12:11:24.929Z,99528.63
2023-11-11T12:13:53.061Z,99530.28
2023-11-11T12:16:21.081Z,99529.00
2023-11-11T12:18:50.145Z,99534.22
2023-11-11T12:21:19.769Z,99539.00
2023-11-11T12:23:47.710Z,99525.31
2023-11-11T12:26:16.422Z,99539.22
2023-11-11T12:28:45.315Z,99541.91
2023-11-11T12:31:13.085Z,99541.09
2023-11-11T12:33:42.611Z,99540.50
2023-11-11T12:36:12.069Z,99543.63
2023-11-11T12:38:40.101Z,99551.56
2023-11-11T12:41:12.953Z,99551.94
2023-11-11T12:43:40.756Z,99566.69
2023-11-11T12:46:15.010Z,99564.44
2023-11-11T12:48:42.861Z,99573.38
2023-11-11T12:51:29.687Z,99571.72
2023-11-11T12:53:58.109Z,99573.38
2023-11-11T12:56:26.083Z,99575.84
2023-11-11T12:59:06.354Z,99573.34
2023-11-11T13:01:35.102Z,99584.41
2023-11-11T13:04:04.797Z,99581.91
2023-11-11T13:06:35.555Z,99592.50
2023-11-11T13:09:05.643Z,99595.22
2023-11-11T13:11:36.067Z,99593.97
2023-11-11T13:14:05.062Z,99586.50
2023-11-11T13:16:33.570Z,99594.00
2023-11-11T13:19:02.645Z,99599.19
2023-11-11T13:21:31.024Z,99595.00
2023-11-11T13:24:00.821Z,99602.28
2023-11-11T13:26:29.085Z,99609.16
2023-11-11T13:28:56.818Z,99600.84
2023-11-11T13:31:25.861Z,99609.75
2023-11-11T13:33:54.219Z,99609.13
2023-11-11T13:36:26.332Z,99606.41
2023-11-11T13:38:54.404Z,99607.50
2023-11-11T13:41:27.610Z,99608.53
2023-11-11T13:43:57.020Z,99606.22
2023-11-11T13:46:27.204Z,99617.22
2023-11-11T13:48:56.539Z,99614.50
2023-11-11T13:51:25.045Z,99611.22
2023-11-11T13:53:56.416Z,99618.69
2023-11-11T13:56:26.116Z,99619.91
2023-11-11T13:58:56.308Z,99619.72
2023-11-11T14:01:25.813Z,99625.13
2023-11-11T14:03:54.967Z,99619.91
2023-11-11T14:06:24.231Z,99619.72
2023-11-11T14:08:55.928Z,99624.06
2023-11-11T14:11:26.908Z,99623.88
2023-11-11T14:13:54.814Z,99623.88
2023-11-11T14:16:24.744Z,99621.56
2023-11-11T14:18:52.680Z,99623.66
2023-11-11T14:21:20.773Z,99624.91
2023-11-11T14:23:48.496Z,99619.72
2023-11-11T14:26:16.321Z,99619.91
2023-11-11T14:28:45.658Z,99616.00
2023-11-11T14:31:16.087Z,99614.31
2023-11-11T14:33:54.535Z,99616.41
2023-11-11T14:36:29.280Z,99622.22
2023-11-11T14:38:57.136Z,99622.63
2023-11-11T14:41:25.905Z,99624.28
2023-11-11T14:43:55.624Z,99619.72
2023-11-11T14:46:24.423Z,99634.84
2023-11-11T14:48:52.186Z,99628.88
2023-11-11T14:51:20.275Z,99636.75
2023-11-11T14:53:48.156Z,99638.19
2023-11-11T14:56:15.921Z,99631.13
2023-11-11T14:58:44.287Z,99640.88
2023-11-11T15:01:15.150Z,99639.41
2023-11-11T15:03:43.120Z,99652.06
2023-11-11T15:06:11.688Z,99649.56
2023-11-11T15:08:42.408Z,99649.78
2023-11-11T15:11:11.978Z,99647.94
2023-11-11T15:13:41.038Z,99654.13
2023-11-11T15:16:11.282Z,99653.53
2023-11-11T15:18:40.457Z,99657.06
2023-11-11T15:21:09.019Z,99659.53
2023-11-11T15:23:37.312Z,99663.91
2023-11-11T15:26:07.042Z,99668.66
2023-11-11T15:28:34.950Z,99670.94
2023-11-11T15:31:03.550Z,99667.84
2023-11-11T15:33:31.453Z,99673.84
2023-11-11T15:36:00.537Z,99679.03
2023-11-11T15:38:28.940Z,99684.03
2023-11-11T15:40:57.849Z,99678.41
2023-11-11T15:43:25.895Z,99681.13
2023-11-11T15:45:54.355Z,99686.06
2023-11-11T15:48:22.294Z,99685.88
2023-11-11T15:50:50.033Z,99692.09
2023-11-11T15:53:19.579Z,99687.53
2023-11-11T15:55:49.015Z,99681.94
2023-11-11T15:58:17.918Z,99693.75
2023-11-11T16:00:46.001Z,99695.19
2023-11-11T16:03:13.863Z,99688.56
2023-11-11T16:05:41.908Z,99693.56
2023-11-11T16:08:09.953Z,99696.44
2023-11-11T16:10:39.199Z,99688.56
2023-11-11T16:13:06.902Z,99697.28
2023-11-11T16:15:34.661Z,99693.56
2023-11-11T16:18:03.611Z,99685.06
2023-11-11T16:20:31.978Z,99688.78
2023-11-11T16:23:00.359Z,99690.22
2023-11-11T16:25:29.101Z,99690.00
2023-11-11T16:27:58.816Z,99692.09
2023-11-11T16:30:26.801Z,99699.56
2023-11-11T16:32:54.533Z,99703.06
2023-11-11T16:35:22.344Z,99707.84
2023-11-11T16:37:50.146Z,99713.03
2023-11-11T16:40:18.708Z,99722.56
2023-11-11T16:42:46.552Z,99743.91
2023-11-11T16:45:15.621Z,99735.38
2023-11-11T16:47:43.404Z,99740.38
2023-11-11T16:50:14.017Z,99737.47
2023-11-11T16:52:41.859Z,99741.44
2023-11-11T16:55:11.796Z,99745.38
2023-11-11T16:57:39.531Z,99744.72
2023-11-11T17:00:09.908Z,99747.44
2023-11-11T17:02:39.640Z,99749.09
2023-11-11T17:05:08.137Z,99741.84
2023-11-11T17:07:37.198Z,99737.50
2023-11-11T17:10:06.888Z,99731.69
2023-11-11T17:12:35.191Z,99726.53
2023-11-11T17:15:03.593Z,99717.41
2023-11-11T17:17:31.539Z,99727.56
2023-11-11T17:20:01.404Z,99719.91
2023-11-11T17:22:29.190Z,99713.47
2023-11-11T17:24:57.010Z,99716.16
2023-11-11T17:27:25.241Z,99729.66
2023-11-11T17:29:55.297Z,99720.31
2023-11-11T17:32:23.644Z,99728.38
2023-11-11T17:34:51.667Z,99718.84
2023-11-11T17:37:21.591Z,99713.47
2023-11-11T17:39:49.350Z,99727.56
2023-11-11T17:42:17.105Z,99721.13
2023-11-11T17:44:44.876Z,99723.59
2023-11-11T17:47:12.758Z,99714.47
2023-11-11T17:49:40.614Z,99735.41
2023-11-11T17:52:09.899Z,99735.84
2023-11-11T17:54:40.052Z,99735.22
2023-11-11T17:57:07.888Z,99744.34
2023-11-11T17:59:35.767Z,99743.31
2023-11-11T18:02:04.559Z,99745.13
2023-11-11T18:04:32.618Z,99761.94
2023-11-11T18:07:00.406Z,99759.22
2023-11-11T18:09:28.175Z,99759.03
2023-11-11T18:11:57.266Z,99756.56
2023-11-11T18:14:25.033Z,99758.22
2023-11-11T18:16:52.962Z,99753.66
2023-11-11T18:19:20.763Z,99755.13
2023-11-11T18:21:48.509Z,99752.00
2023-11-11T18:24:16.275Z,99754.72
2023-11-11T18:26:44.096Z,99747.88
2023-11-11T18:29:13.316Z,99756.22
2023-11-11T18:31:41.050Z,99751.25
2023-11-11T18:34:08.781Z,99754.16
2023-11-11T18:36:36.476Z,99754.59
2023-11-11T18:39:04.637Z,99754.59
2023-11-11T18:41:33.025Z,99769.13
2023-11-11T18:44:00.768Z,99768.44
2023-11-11T18:46:29.871Z,99762.22
2023-11-11T18:48:57.733Z,99772.00
2023-11-11T18:51:26.349Z,99769.28
2023-11-11T18:53:54.353Z,99774.69
2023-11-11T18:56:22.200Z,99777.78
2023-11-11T18:58:50.496Z,99783.16
2023-11-11T19:01:18.440Z,99796.47
2023-11-11T19:03:47.642Z,99787.09
2023-11-11T19:06:15.469Z,99786.06
2023-11-11T19:08:43.296Z,99781.91
2023-11-11T19:11:11.400Z,99777.97
2023-11-11T19:13:39.316Z,99772.16
2023-11-11T19:16:08.467Z,99772.16
2023-11-11T19:18:37.236Z,99780.06
2023-11-11T19:21:06.729Z,99776.94
2023-11-11T19:23:35.528Z,99772.38
2023-11-11T19:26:06.953Z,99768.44
2023-11-11T19:28:35.256Z,99780.47
2023-11-11T19:31:04.443Z,99771.53
2023-11-11T19:33:32.667Z,99779.41
2023-11-11T19:36:03.321Z,99777.38
2023-11-11T19:38:32.440Z,99784.00
2023-11-11T19:41:00.535Z,99786.28
2023-11-11T19:43:28.708Z,99788.75
2023-11-11T19:45:56.709Z,99788.31
2023-11-11T19:48:24.479Z,99787.72
2023-11-11T19:50:54.240Z,99800.16
2023-11-11T19:53:23.907Z,99793.94
2023-11-11T19:55:54.261Z,99791.44
2023-11-11T19:58:22.720Z,99792.47
2023-11-11T20:00:51.015Z,99796.03
2023-11-11T20:03:18.852Z,99806.16
2023-11-11T20:05:47.328Z,99807.19
2023-11-11T20:08:15.446Z,99803.47
2023-11-11T20:10:43.307Z,99803.91
2023-11-11T20:13:12.521Z,99802.44
2023-11-11T20:15:42.234Z,99798.88
2023-11-11T20:18:10.583Z,99801.41
2023-11-11T20:20:38.977Z,99802.22
2023-11-11T20:23:06.971Z,99806.59
2023-11-11T20:25:35.026Z,99805.56
2023-11-11T20:28:03.396Z,99809.09
2023-11-11T20:30:34.786Z,99808.88
2023-11-11T20:33:05.422Z,99814.25
2023-11-11T20:35:33.413Z,99812.22
2023-11-11T20:38:01.970Z,99816.53
2023-11-11T20:40:30.081Z,99808.06
2023-11-11T20:42:58.767Z,99820.69
2023-11-11T20:45:26.950Z,99814.47
2023-11-11T20:47:58.702Z,99812.19
2023-11-11T20:50:27.197Z,99813.44
2023-11-11T20:52:55.480Z,99810.53
2023-11-11T20:55:23.933Z,99812.59
2023-11-11T20:57:52.532Z,99807.19
2023-11-11T21:00:21.545Z,99800.56
2023-11-11T21:02:50.267Z,99803.03
2023-11-11T21:05:20.240Z,99807.59
2023-11-11T21:07:48.691Z,99803.22
2023-11-11T21:10:17.331Z,99809.25
2023-11-11T21:12:48.585Z,99806.56
2023-11-11T21:15:18.721Z,99802.19
2023-11-11T21:17:47.418Z,99811.94
2023-11-11T21:20:16.625Z,99807.16
2023-11-11T21:22:49.079Z,99804.09
2023-11-11T21:25:17.061Z,99807.19
2023-11-11T21:27:45.153Z,99802.66
2023-11-11T21:30:14.614Z,99803.25
2023-11-11T21:32:42.851Z,99814.69
2023-11-11T21:35:11.317Z,99801.00
2023-11-11T21:37:39.497Z,99791.94
2023-11-11T21:40:11.569Z,99795.66
2023-11-11T21:42:39.725Z,99803.97
2023-11-11T21:45:08.185Z,99802.25
2023-11-11T21:47:36.105Z,99801.00
2023-11-11T21:50:06.420Z,99802.88
2023-11-11T21:52:37.485Z,99801.84
2023-11-11T21:55:06.638Z,99797.50
2023-11-11T21:57:37.555Z,99796.03
2023-11-11T22:00:10.246Z,99796.84
2023-11-11T22:02:38.616Z,99796.03
2023-11-11T22:05:08.502Z,99788.53
2023-11-11T22:07:36.427Z,99790.84
2023-11-11T22:10:06.526Z,99789.56
2023-11-11T22:12:35.612Z,99794.97
2023-11-11T22:15:03.564Z,99792.25
2023-11-11T22:17:31.375Z,99789.38
2023-11-11T22:19:59.191Z,99793.53
2023-11-11T22:22:27.173Z,99793.72
2023-11-11T22:24:55.362Z,99798.88
2023-11-11T22:27:23.186Z,99800.97
2023-11-11T22:29:53.398Z,99790.63
2023-11-11T22:32:21.870Z,99794.97
2023-11-11T22:34:49.845Z,99790.41
2023-11-11T22:37:17.743Z,99799.53
2023-11-11T22:39:46.327Z,99798.06
2023-11-11T22:42:14.157Z,99800.97
2023-11-11T22:44:42.653Z,99797.88
2023-11-11T22:47:12.038Z,99792.25
2023-11-11T22:49:41.105Z,99803.69
2023-11-11T22:52:09.140Z,99809.91
2023-11-11T22:54:36.867Z,99811.78
2023-11-11T22:57:04.907Z,99811.34
2023-11-11T22:59:33.069Z,99812.59
2023-11-11T23:02:01.303Z,99803.91
2023-11-11T23:04:31.050Z,99807.19
2023-11-11T23:06:59.381Z,99809.28
2023-11-11T23:09:28.119Z,99806.38
2023-11-11T23:11:57.914Z,99794.78
2023-11-11T23:14:25.929Z,99796.63
2023-11-11T23:16:53.802Z,99804.72
2023-11-11T23:19:21.758Z,99797.47
2023-11-11T23:21:50.867Z,99794.97
2023-11-11T23:24:18.828Z,99810.75
2023-11-11T23:26:47.530Z,99798.94
2023-11-11T23:29:15.324Z,99801.19
2023-11-11T23:31:43.823Z,99804.28
2023-11-11T23:34:12.280Z,99804.09
2023-11-11T23:36:40.138Z,99798.88
2023-11-11T23:39:09.257Z,99803.91
2023-11-11T23:41:37.289Z,99803.91
2023-11-11T23:44:05.590Z,99801.78
2023-11-11T23:46:34.613Z,99804.94
2023-11-11T23:49:02.541Z,99793.31
2023-11-11T23:51:30.935Z,99793.13
2023-11-11T23:53:59.050Z,99794.13
2023-11-11T23:56:28.449Z,99789.19
2023-11-11T23:58:56.168Z,99795.59
